sensor_id;sensor_type;location;lat;lon;timestamp;P1;P2;P0
78678;PMS5003;67994;59.334;13.528;2023-05-10T00:00:00;6.4;5.7;
78678;PMS5003;67994;59.334;13.528;2023-05-10T00:01:00;6.4;5.7;
78678;PMS5003;67994;59.334;13.528;2023-05-10T00:02:00;6.4;5.7;
78678;PMS5003;67994;59.334;13.528;2023-05-10T00:03:00;6.4;5.7;
78678;PMS5003;67994;59.334;13.528;2023-05-10T00:04:00;11.8;10.6;
78678;PMS5003;67994;59.334;13.528;2023-05-10T00:05:00;11.8;10.6;
78678;PMS5003;67994;59.334;13.528;2023-05-10T00:06:00;11.8;10.6;
78678;PMS5003;67994;59.334;13.528;2023-05-10T00:07:00;11.8;10.6;
78678;PMS5003;67994;59.334;13.528;2023-05-10T00:08:00;11.8;10.6;
78678;PMS5003;67994;59.334;13.528;2023-05-10T00:09:00;6.3;6.0;
78678;PMS5003;67994;59.334;13.528;2023-05-10T00:10:00;6.3;6.0;
78678;PMS5003;67994;59.334;13.528;2023-05-10T00:11:00;6.3;6.0;
78678;PMS5003;67994;59.334;13.528;2023-05-10T00:12:00;6.3;6.0;
78678;PMS5003;67994;59.334;13.528;2023-05-10T00:13:00;6.3;6.0;
78678;PMS5003;67994;59.334;13.528;2023-05-10T00:14:00;6.6;6.6;
78678;PMS5003;67994;59.334;13.528;2023-05-10T00:15:00;6.6;6.6;
78678;PMS5003;67994;59.334;13.528;2023-05-10T00:16:00;6.6;6.6;
78678;PMS5003;67994;59.334;13.528;2023-05-10T00:17:00;6.6;6.6;
78678;PMS5003;67994;59.334;13.528;2023-05-10T00:18:00;6.6;6.6;
78678;PMS5003;67994;59.334;13.528;2023-05-10T00:19:00;7.2;7.2;
78678;PMS5003;67994;59.334;13.528;2023-05-10T00:20:00;7.2;7.2;
78678;PMS5003;67994;59.334;13.528;2023-05-10T00:21:00;7.2;7.2;
78678;PMS5003;67994;59.334;13.528;2023-05-10T00:22:00;7.2;7.2;
78678;PMS5003;67994;59.334;13.528;2023-05-10T00:23:00;7.2;7.2;
78678;PMS5003;67994;59.334;13.528;2023-05-10T00:24:00;10.6;9.7;
78678;PMS5003;67994;59.334;13.528;2023-05-10T00:25:00;10.6;9.7;
78678;PMS5003;67994;59.334;13.528;2023-05-10T00:26:00;10.6;9.7;
78678;PMS5003;67994;59.334;13.528;2023-05-10T00:27:00;10.6;9.7;
78678;PMS5003;67994;59.334;13.528;2023-05-10T00:28:00;10.6;9.7;
78678;PMS5003;67994;59.334;13.528;2023-05-10T00:29:00;11.0;10.0;
78678;PMS5003;67994;59.334;13.528;2023-05-10T00:30:00;11.0;10.0;
78678;PMS5003;67994;59.334;13.528;2023-05-10T00:31:00;11.0;10.0;
78678;PMS5003;67994;59.334;13.528;2023-05-10T00:32:00;11.0;10.0;
78678;PMS5003;67994;59.334;13.528;2023-05-10T00:33:00;11.0;10.0;
78678;PMS5003;67994;59.334;13.528;2023-05-10T00:34:00;8.2;7.0;
78678;PMS5003;67994;59.334;13.528;2023-05-10T00:35:00;8.2;7.0;
78678;PMS5003;67994;59.334;13.528;2023-05-10T00:36:00;8.2;7.0;
78678;PMS5003;67994;59.334;13.528;2023-05-10T00:37:00;8.2;7.0;
78678;PMS5003;67994;59.334;13.528;2023-05-10T00:38:00;8.2;7.0;
78678;PMS5003;67994;59.334;13.528;2023-05-10T00:39:00;9.3;5.1;
78678;PMS5003;67994;59.334;13.528;2023-05-10T00:40:00;9.3;5.1;
78678;PMS5003;67994;59.334;13.528;2023-05-10T00:41:00;9.3;5.1;
78678;PMS5003;67994;59.334;13.528;2023-05-10T00:42:00;9.3;5.1;
78678;PMS5003;67994;59.334;13.528;2023-05-10T00:43:00;9.3;5.1;
78678;PMS5003;67994;59.334;13.528;2023-05-10T00:44:00;11.8;10.1;
78678;PMS5003;67994;59.334;13.528;2023-05-10T00:45:00;11.8;10.1;
78678;PMS5003;67994;59.334;13.528;2023-05-10T00:46:00;11.8;10.1;
78678;PMS5003;67994;59.334;13.528;2023-05-10T00:47:00;11.8;10.1;
78678;PMS5003;67994;59.334;13.528;2023-05-10T00:48:00;11.8;10.1;
78678;PMS5003;67994;59.334;13.528;2023-05-10T00:49:00;10.0;7.2;
78678;PMS5003;67994;59.334;13.528;2023-05-10T00:50:00;10.0;7.2;
78678;PMS5003;67994;59.334;13.528;2023-05-10T00:51:00;10.0;7.2;
78678;PMS5003;67994;59.334;13.528;2023-05-10T00:52:00;10.0;7.2;
78678;PMS5003;67994;59.334;13.528;2023-05-10T00:53:00;10.0;7.2;
78678;PMS5003;67994;59.334;13.528;2023-05-10T00:54:00;9.3;7.8;
78678;PMS5003;67994;59.334;13.528;2023-05-10T00:55:00;9.3;7.8;
78678;PMS5003;67994;59.334;13.528;2023-05-10T00:56:00;9.3;7.8;
78678;PMS5003;67994;59.334;13.528;2023-05-10T00:57:00;9.3;7.8;
78678;PMS5003;67994;59.334;13.528;2023-05-10T00:58:00;9.3;7.8;
78678;PMS5003;67994;59.334;13.528;2023-05-10T00:59:00;6.7;6.0;
78678;PMS5003;67994;59.334;13.528;2023-05-10T01:00:00;6.7;6.0;
78678;PMS5003;67994;59.334;13.528;2023-05-10T01:01:00;6.7;6.0;
78678;PMS5003;67994;59.334;13.528;2023-05-10T01:02:00;6.7;6.0;
78678;PMS5003;67994;59.334;13.528;2023-05-10T01:03:00;6.7;6.0;
78678;PMS5003;67994;59.334;13.528;2023-05-10T01:04:00;9.3;9.0;
78678;PMS5003;67994;59.334;13.528;2023-05-10T01:05:00;9.3;9.0;
78678;PMS5003;67994;59.334;13.528;2023-05-10T01:06:00;9.3;9.0;
78678;PMS5003;67994;59.334;13.528;2023-05-10T01:07:00;9.3;9.0;
78678;PMS5003;67994;59.334;13.528;2023-05-10T01:08:00;9.3;9.0;
78678;PMS5003;67994;59.334;13.528;2023-05-10T01:09:00;9.6;6.7;
78678;PMS5003;67994;59.334;13.528;2023-05-10T01:10:00;9.6;6.7;
78678;PMS5003;67994;59.334;13.528;2023-05-10T01:11:00;9.6;6.7;
78678;PMS5003;67994;59.334;13.528;2023-05-10T01:12:00;9.6;6.7;
78678;PMS5003;67994;59.334;13.528;2023-05-10T01:13:00;9.6;6.7;
78678;PMS5003;67994;59.334;13.528;2023-05-10T01:14:00;12.7;8.4;
78678;PMS5003;67994;59.334;13.528;2023-05-10T01:15:00;12.7;8.4;
78678;PMS5003;67994;59.334;13.528;2023-05-10T01:16:00;12.7;8.4;
78678;PMS5003;67994;59.334;13.528;2023-05-10T01:17:00;12.7;8.4;
78678;PMS5003;67994;59.334;13.528;2023-05-10T01:18:00;12.7;8.4;
78678;PMS5003;67994;59.334;13.528;2023-05-10T01:19:00;10.7;9.3;
78678;PMS5003;67994;59.334;13.528;2023-05-10T01:20:00;10.7;9.3;
78678;PMS5003;67994;59.334;13.528;2023-05-10T01:21:04;10.7;9.3;
78678;PMS5003;67994;59.334;13.528;2023-05-10T01:22:02;10.7;9.3;
78678;PMS5003;67994;59.334;13.528;2023-05-10T01:23:08;10.7;9.3;
78678;PMS5003;67994;59.334;13.528;2023-05-10T01:25:06;6.9;6.9;
78678;PMS5003;67994;59.334;13.528;2023-05-10T01:27:02;6.9;6.9;
78678;PMS5003;67994;59.334;13.528;2023-05-10T01:28:05;6.9;6.9;
78678;PMS5003;67994;59.334;13.528;2023-05-10T01:29:07;7.6;6.7;
78678;PMS5003;67994;59.334;13.528;2023-05-10T01:30:05;7.6;6.7;
78678;PMS5003;67994;59.334;13.528;2023-05-10T01:31:05;7.6;6.7;
78678;PMS5003;67994;59.334;13.528;2023-05-10T01:33:00;7.6;6.7;
78678;PMS5003;67994;59.334;13.528;2023-05-10T01:34:01;9.9;9.0;
78678;PMS5003;67994;59.334;13.528;2023-05-10T01:35:00;9.9;9.0;
78678;PMS5003;67994;59.334;13.528;2023-05-10T01:36:01;9.9;9.0;
78678;PMS5003;67994;59.334;13.528;2023-05-10T01:37:02;9.9;9.0;
78678;PMS5003;67994;59.334;13.528;2023-05-10T01:38:04;9.9;9.0;
78678;PMS5003;67994;59.334;13.528;2023-05-10T01:39:01;9.7;7.6;
78678;PMS5003;67994;59.334;13.528;2023-05-10T01:40:01;9.7;7.6;
78678;PMS5003;67994;59.334;13.528;2023-05-10T01:41:11;9.7;7.6;
78678;PMS5003;67994;59.334;13.528;2023-05-10T01:42:01;9.7;7.6;
78678;PMS5003;67994;59.334;13.528;2023-05-10T01:43:01;9.7;7.6;
78678;PMS5003;67994;59.334;13.528;2023-05-10T01:44:02;11.0;7.8;
78678;PMS5003;67994;59.334;13.528;2023-05-10T01:45:02;11.0;7.8;
78678;PMS5003;67994;59.334;13.528;2023-05-10T01:46:01;11.0;7.8;
78678;PMS5003;67994;59.334;13.528;2023-05-10T01:47:01;11.0;7.8;
78678;PMS5003;67994;59.334;13.528;2023-05-10T01:48:04;11.0;7.8;
78678;PMS5003;67994;59.334;13.528;2023-05-10T01:49:00;13.3;10.0;
78678;PMS5003;67994;59.334;13.528;2023-05-10T01:50:01;13.3;10.0;
78678;PMS5003;67994;59.334;13.528;2023-05-10T01:51:00;13.3;10.0;
78678;PMS5003;67994;59.334;13.528;2023-05-10T01:52:03;13.3;10.0;
78678;PMS5003;67994;59.334;13.528;2023-05-10T01:53:00;13.3;10.0;
78678;PMS5003;67994;59.334;13.528;2023-05-10T01:54:01;10.7;10.5;
78678;PMS5003;67994;59.334;13.528;2023-05-10T01:55:01;10.7;10.5;
78678;PMS5003;67994;59.334;13.528;2023-05-10T01:56:00;10.7;10.5;
78678;PMS5003;67994;59.334;13.528;2023-05-10T01:57:02;10.7;10.5;
78678;PMS5003;67994;59.334;13.528;2023-05-10T01:58:02;10.7;10.5;
78678;PMS5003;67994;59.334;13.528;2023-05-10T01:59:00;11.1;10.0;
78678;PMS5003;67994;59.334;13.528;2023-05-10T02:00:01;11.1;10.0;
78678;PMS5003;67994;59.334;13.528;2023-05-10T02:01:01;11.1;10.0;
78678;PMS5003;67994;59.334;13.528;2023-05-10T02:02:00;11.1;10.0;
78678;PMS5003;67994;59.334;13.528;2023-05-10T02:03:01;11.1;10.0;
78678;PMS5003;67994;59.334;13.528;2023-05-10T02:04:00;11.3;11.0;
78678;PMS5003;67994;59.334;13.528;2023-05-10T02:05:00;11.3;11.0;
78678;PMS5003;67994;59.334;13.528;2023-05-10T02:06:00;11.3;11.0;
78678;PMS5003;67994;59.334;13.528;2023-05-10T02:07:00;11.3;11.0;
78678;PMS5003;67994;59.334;13.528;2023-05-10T02:08:00;11.3;11.0;
78678;PMS5003;67994;59.334;13.528;2023-05-10T02:09:00;9.7;9.1;
78678;PMS5003;67994;59.334;13.528;2023-05-10T02:10:00;9.7;9.1;
78678;PMS5003;67994;59.334;13.528;2023-05-10T02:11:00;9.7;9.1;
78678;PMS5003;67994;59.334;13.528;2023-05-10T02:12:01;9.7;9.1;
78678;PMS5003;67994;59.334;13.528;2023-05-10T02:13:00;9.7;9.1;
78678;PMS5003;67994;59.334;13.528;2023-05-10T02:14:00;13.0;12.2;
78678;PMS5003;67994;59.334;13.528;2023-05-10T02:15:00;13.0;12.2;
78678;PMS5003;67994;59.334;13.528;2023-05-10T02:16:00;13.0;12.2;
78678;PMS5003;67994;59.334;13.528;2023-05-10T02:17:00;13.0;12.2;
78678;PMS5003;67994;59.334;13.528;2023-05-10T02:18:00;13.0;12.2;
78678;PMS5003;67994;59.334;13.528;2023-05-10T02:19:00;12.2;11.0;
78678;PMS5003;67994;59.334;13.528;2023-05-10T02:20:00;12.2;11.0;
78678;PMS5003;67994;59.334;13.528;2023-05-10T02:21:00;12.2;11.0;
78678;PMS5003;67994;59.334;13.528;2023-05-10T02:22:00;12.2;11.0;
78678;PMS5003;67994;59.334;13.528;2023-05-10T02:23:00;12.2;11.0;
78678;PMS5003;67994;59.334;13.528;2023-05-10T02:24:00;10.4;10.3;
78678;PMS5003;67994;59.334;13.528;2023-05-10T02:25:00;10.4;10.3;
78678;PMS5003;67994;59.334;13.528;2023-05-10T02:26:00;10.4;10.3;
78678;PMS5003;67994;59.334;13.528;2023-05-10T02:27:00;10.4;10.3;
78678;PMS5003;67994;59.334;13.528;2023-05-10T02:28:01;10.4;10.3;
78678;PMS5003;67994;59.334;13.528;2023-05-10T02:29:00;14.5;13.1;
78678;PMS5003;67994;59.334;13.528;2023-05-10T02:30:00;14.5;13.1;
78678;PMS5003;67994;59.334;13.528;2023-05-10T02:31:00;14.5;13.1;
78678;PMS5003;67994;59.334;13.528;2023-05-10T02:32:00;14.5;13.1;
78678;PMS5003;67994;59.334;13.528;2023-05-10T02:33:00;14.5;13.1;
78678;PMS5003;67994;59.334;13.528;2023-05-10T02:34:00;12.2;10.3;
78678;PMS5003;67994;59.334;13.528;2023-05-10T02:35:00;12.2;10.3;
78678;PMS5003;67994;59.334;13.528;2023-05-10T02:36:00;12.2;10.3;
78678;PMS5003;67994;59.334;13.528;2023-05-10T02:37:00;12.2;10.3;
78678;PMS5003;67994;59.334;13.528;2023-05-10T02:38:00;12.2;10.3;
78678;PMS5003;67994;59.334;13.528;2023-05-10T02:39:00;9.7;9.7;
78678;PMS5003;67994;59.334;13.528;2023-05-10T02:40:00;9.7;9.7;
78678;PMS5003;67994;59.334;13.528;2023-05-10T02:41:00;9.7;9.7;
78678;PMS5003;67994;59.334;13.528;2023-05-10T02:42:00;9.7;9.7;
78678;PMS5003;67994;59.334;13.528;2023-05-10T02:43:01;9.7;9.7;
78678;PMS5003;67994;59.334;13.528;2023-05-10T02:44:00;10.9;10.0;
78678;PMS5003;67994;59.334;13.528;2023-05-10T02:45:01;10.9;10.0;
78678;PMS5003;67994;59.334;13.528;2023-05-10T02:46:00;10.9;10.0;
78678;PMS5003;67994;59.334;13.528;2023-05-10T02:47:00;10.9;10.0;
78678;PMS5003;67994;59.334;13.528;2023-05-10T02:48:00;10.9;10.0;
78678;PMS5003;67994;59.334;13.528;2023-05-10T02:49:00;10.4;10.0;
78678;PMS5003;67994;59.334;13.528;2023-05-10T02:50:00;10.4;10.0;
78678;PMS5003;67994;59.334;13.528;2023-05-10T02:51:00;10.4;10.0;
78678;PMS5003;67994;59.334;13.528;2023-05-10T02:52:00;10.4;10.0;
78678;PMS5003;67994;59.334;13.528;2023-05-10T02:53:01;10.4;10.0;
78678;PMS5003;67994;59.334;13.528;2023-05-10T02:54:01;10.1;10.0;
78678;PMS5003;67994;59.334;13.528;2023-05-10T02:55:00;10.1;10.0;
78678;PMS5003;67994;59.334;13.528;2023-05-10T02:56:01;10.1;10.0;
78678;PMS5003;67994;59.334;13.528;2023-05-10T02:57:00;10.1;10.0;
78678;PMS5003;67994;59.334;13.528;2023-05-10T02:58:01;10.1;10.0;
78678;PMS5003;67994;59.334;13.528;2023-05-10T02:59:00;12.1;6.8;
78678;PMS5003;67994;59.334;13.528;2023-05-10T03:00:00;12.1;6.8;
78678;PMS5003;67994;59.334;13.528;2023-05-10T03:01:00;12.1;6.8;
78678;PMS5003;67994;59.334;13.528;2023-05-10T03:02:00;12.1;6.8;
78678;PMS5003;67994;59.334;13.528;2023-05-10T03:03:00;12.1;6.8;
78678;PMS5003;67994;59.334;13.528;2023-05-10T03:04:00;12.3;9.1;
78678;PMS5003;67994;59.334;13.528;2023-05-10T03:05:00;12.3;9.1;
78678;PMS5003;67994;59.334;13.528;2023-05-10T03:06:00;12.3;9.1;
78678;PMS5003;67994;59.334;13.528;2023-05-10T03:07:00;12.3;9.1;
78678;PMS5003;67994;59.334;13.528;2023-05-10T03:08:00;12.3;9.1;
78678;PMS5003;67994;59.334;13.528;2023-05-10T03:09:00;13.0;11.1;
78678;PMS5003;67994;59.334;13.528;2023-05-10T03:10:00;13.0;11.1;
78678;PMS5003;67994;59.334;13.528;2023-05-10T03:11:06;13.0;11.1;
78678;PMS5003;67994;59.334;13.528;2023-05-10T03:12:00;13.0;11.1;
78678;PMS5003;67994;59.334;13.528;2023-05-10T03:13:04;13.0;11.1;
78678;PMS5003;67994;59.334;13.528;2023-05-10T03:14:06;14.6;12.5;
78678;PMS5003;67994;59.334;13.528;2023-05-10T03:15:01;14.6;12.5;
78678;PMS5003;67994;59.334;13.528;2023-05-10T03:16:02;14.6;12.5;
78678;PMS5003;67994;59.334;13.528;2023-05-10T03:17:01;14.6;12.5;
78678;PMS5003;67994;59.334;13.528;2023-05-10T03:18:01;14.6;12.5;
78678;PMS5003;67994;59.334;13.528;2023-05-10T03:19:01;15.0;11.6;
78678;PMS5003;67994;59.334;13.528;2023-05-10T03:20:03;15.0;11.6;
78678;PMS5003;67994;59.334;13.528;2023-05-10T03:21:02;15.0;11.6;
78678;PMS5003;67994;59.334;13.528;2023-05-10T03:22:03;15.0;11.6;
78678;PMS5003;67994;59.334;13.528;2023-05-10T03:23:01;15.0;11.6;
78678;PMS5003;67994;59.334;13.528;2023-05-10T03:24:02;13.1;13.1;
78678;PMS5003;67994;59.334;13.528;2023-05-10T03:25:00;13.1;13.1;
78678;PMS5003;67994;59.334;13.528;2023-05-10T03:26:00;13.1;13.1;
78678;PMS5003;67994;59.334;13.528;2023-05-10T03:27:00;13.1;13.1;
78678;PMS5003;67994;59.334;13.528;2023-05-10T03:28:00;13.1;13.1;
78678;PMS5003;67994;59.334;13.528;2023-05-10T03:29:00;11.7;9.8;
78678;PMS5003;67994;59.334;13.528;2023-05-10T03:30:00;11.7;9.8;
78678;PMS5003;67994;59.334;13.528;2023-05-10T03:31:00;11.7;9.8;
78678;PMS5003;67994;59.334;13.528;2023-05-10T03:32:00;11.7;9.8;
78678;PMS5003;67994;59.334;13.528;2023-05-10T03:33:03;11.7;9.8;
78678;PMS5003;67994;59.334;13.528;2023-05-10T03:34:00;12.0;10.8;
78678;PMS5003;67994;59.334;13.528;2023-05-10T03:35:00;12.0;10.8;
78678;PMS5003;67994;59.334;13.528;2023-05-10T03:36:00;12.0;10.8;
78678;PMS5003;67994;59.334;13.528;2023-05-10T03:37:00;12.0;10.8;
78678;PMS5003;67994;59.334;13.528;2023-05-10T03:38:00;12.0;10.8;
78678;PMS5003;67994;59.334;13.528;2023-05-10T03:39:00;12.8;11.1;
78678;PMS5003;67994;59.334;13.528;2023-05-10T03:40:00;12.8;11.1;
78678;PMS5003;67994;59.334;13.528;2023-05-10T03:41:00;12.8;11.1;
78678;PMS5003;67994;59.334;13.528;2023-05-10T03:42:00;12.8;11.1;
78678;PMS5003;67994;59.334;13.528;2023-05-10T03:43:00;12.8;11.1;
78678;PMS5003;67994;59.334;13.528;2023-05-10T03:44:00;11.5;10.3;
78678;PMS5003;67994;59.334;13.528;2023-05-10T03:45:00;11.5;10.3;
78678;PMS5003;67994;59.334;13.528;2023-05-10T03:46:01;11.5;10.3;
78678;PMS5003;67994;59.334;13.528;2023-05-10T03:47:00;11.5;10.3;
78678;PMS5003;67994;59.334;13.528;2023-05-10T03:48:00;11.5;10.3;
78678;PMS5003;67994;59.334;13.528;2023-05-10T03:49:00;13.3;10.9;
78678;PMS5003;67994;59.334;13.528;2023-05-10T03:50:00;13.3;10.9;
78678;PMS5003;67994;59.334;13.528;2023-05-10T03:51:00;13.3;10.9;
78678;PMS5003;67994;59.334;13.528;2023-05-10T03:52:00;13.3;10.9;
78678;PMS5003;67994;59.334;13.528;2023-05-10T03:53:00;13.3;10.9;
78678;PMS5003;67994;59.334;13.528;2023-05-10T03:54:00;9.9;9.6;
78678;PMS5003;67994;59.334;13.528;2023-05-10T03:55:00;9.9;9.6;
78678;PMS5003;67994;59.334;13.528;2023-05-10T03:56:00;9.9;9.6;
78678;PMS5003;67994;59.334;13.528;2023-05-10T03:57:00;9.9;9.6;
78678;PMS5003;67994;59.334;13.528;2023-05-10T03:58:00;9.9;9.6;
78678;PMS5003;67994;59.334;13.528;2023-05-10T03:59:00;15.5;14.9;
78678;PMS5003;67994;59.334;13.528;2023-05-10T04:00:00;15.5;14.9;
78678;PMS5003;67994;59.334;13.528;2023-05-10T04:01:00;15.5;14.9;
78678;PMS5003;67994;59.334;13.528;2023-05-10T04:02:00;15.5;14.9;
78678;PMS5003;67994;59.334;13.528;2023-05-10T04:03:00;15.5;14.9;
78678;PMS5003;67994;59.334;13.528;2023-05-10T04:04:00;11.8;10.9;
78678;PMS5003;67994;59.334;13.528;2023-05-10T04:05:00;11.8;10.9;
78678;PMS5003;67994;59.334;13.528;2023-05-10T04:06:00;11.8;10.9;
78678;PMS5003;67994;59.334;13.528;2023-05-10T04:07:00;11.8;10.9;
78678;PMS5003;67994;59.334;13.528;2023-05-10T04:08:00;11.8;10.9;
78678;PMS5003;67994;59.334;13.528;2023-05-10T04:09:00;11.4;11.4;
78678;PMS5003;67994;59.334;13.528;2023-05-10T04:10:00;11.4;11.4;
78678;PMS5003;67994;59.334;13.528;2023-05-10T04:11:07;11.4;11.4;
78678;PMS5003;67994;59.334;13.528;2023-05-10T04:12:00;11.4;11.4;
78678;PMS5003;67994;59.334;13.528;2023-05-10T04:13:00;11.4;11.4;
78678;PMS5003;67994;59.334;13.528;2023-05-10T04:14:00;9.7;9.7;
78678;PMS5003;67994;59.334;13.528;2023-05-10T04:15:00;9.7;9.7;
78678;PMS5003;67994;59.334;13.528;2023-05-10T04:16:00;9.7;9.7;
78678;PMS5003;67994;59.334;13.528;2023-05-10T04:17:00;9.7;9.7;
78678;PMS5003;67994;59.334;13.528;2023-05-10T04:18:00;9.7;9.7;
78678;PMS5003;67994;59.334;13.528;2023-05-10T04:19:00;10.7;10.0;
78678;PMS5003;67994;59.334;13.528;2023-05-10T04:20:00;10.7;10.0;
78678;PMS5003;67994;59.334;13.528;2023-05-10T04:21:00;10.7;10.0;
78678;PMS5003;67994;59.334;13.528;2023-05-10T04:22:01;10.7;10.0;
78678;PMS5003;67994;59.334;13.528;2023-05-10T04:23:00;10.7;10.0;
78678;PMS5003;67994;59.334;13.528;2023-05-10T04:24:00;11.1;11.1;
78678;PMS5003;67994;59.334;13.528;2023-05-10T04:25:00;11.1;11.1;
78678;PMS5003;67994;59.334;13.528;2023-05-10T04:26:00;11.1;11.1;
78678;PMS5003;67994;59.334;13.528;2023-05-10T04:27:00;11.1;11.1;
78678;PMS5003;67994;59.334;13.528;2023-05-10T04:28:00;11.1;11.1;
78678;PMS5003;67994;59.334;13.528;2023-05-10T04:29:00;11.1;9.2;
78678;PMS5003;67994;59.334;13.528;2023-05-10T04:30:00;11.1;9.2;
78678;PMS5003;67994;59.334;13.528;2023-05-10T04:31:00;11.1;9.2;
78678;PMS5003;67994;59.334;13.528;2023-05-10T04:32:00;11.1;9.2;
78678;PMS5003;67994;59.334;13.528;2023-05-10T04:33:00;11.1;9.2;
78678;PMS5003;67994;59.334;13.528;2023-05-10T04:34:00;10.6;10.6;
78678;PMS5003;67994;59.334;13.528;2023-05-10T04:35:00;10.6;10.6;
78678;PMS5003;67994;59.334;13.528;2023-05-10T04:36:00;10.6;10.6;
78678;PMS5003;67994;59.334;13.528;2023-05-10T04:37:00;10.6;10.6;
78678;PMS5003;67994;59.334;13.528;2023-05-10T04:38:00;10.6;10.6;
78678;PMS5003;67994;59.334;13.528;2023-05-10T04:39:00;12.6;10.3;
78678;PMS5003;67994;59.334;13.528;2023-05-10T04:40:00;12.6;10.3;
78678;PMS5003;67994;59.334;13.528;2023-05-10T04:41:03;12.6;10.3;
78678;PMS5003;67994;59.334;13.528;2023-05-10T04:42:00;12.6;10.3;
78678;PMS5003;67994;59.334;13.528;2023-05-10T04:43:00;12.6;10.3;
78678;PMS5003;67994;59.334;13.528;2023-05-10T04:44:00;10.6;10.6;
78678;PMS5003;67994;59.334;13.528;2023-05-10T04:45:00;10.6;10.6;
78678;PMS5003;67994;59.334;13.528;2023-05-10T04:46:00;10.6;10.6;
78678;PMS5003;67994;59.334;13.528;2023-05-10T04:47:00;10.6;10.6;
78678;PMS5003;67994;59.334;13.528;2023-05-10T04:48:00;10.6;10.6;
78678;PMS5003;67994;59.334;13.528;2023-05-10T04:49:00;11.6;10.3;
78678;PMS5003;67994;59.334;13.528;2023-05-10T04:50:00;11.6;10.3;
78678;PMS5003;67994;59.334;13.528;2023-05-10T04:51:00;11.6;10.3;
78678;PMS5003;67994;59.334;13.528;2023-05-10T04:52:00;11.6;10.3;
78678;PMS5003;67994;59.334;13.528;2023-05-10T04:53:00;11.6;10.3;
78678;PMS5003;67994;59.334;13.528;2023-05-10T04:54:00;9.2;9.2;
78678;PMS5003;67994;59.334;13.528;2023-05-10T04:55:00;9.2;9.2;
78678;PMS5003;67994;59.334;13.528;2023-05-10T04:56:00;9.2;9.2;
78678;PMS5003;67994;59.334;13.528;2023-05-10T04:57:00;9.2;9.2;
78678;PMS5003;67994;59.334;13.528;2023-05-10T04:58:00;9.2;9.2;
78678;PMS5003;67994;59.334;13.528;2023-05-10T04:59:00;12.6;11.6;
78678;PMS5003;67994;59.334;13.528;2023-05-10T05:00:00;12.6;11.6;
78678;PMS5003;67994;59.334;13.528;2023-05-10T05:01:04;12.6;11.6;
78678;PMS5003;67994;59.334;13.528;2023-05-10T05:02:00;12.6;11.6;
78678;PMS5003;67994;59.334;13.528;2023-05-10T05:03:00;12.6;11.6;
78678;PMS5003;67994;59.334;13.528;2023-05-10T05:04:00;10.1;9.1;
78678;PMS5003;67994;59.334;13.528;2023-05-10T05:05:00;10.1;9.1;
78678;PMS5003;67994;59.334;13.528;2023-05-10T05:06:00;10.1;9.1;
78678;PMS5003;67994;59.334;13.528;2023-05-10T05:07:00;10.1;9.1;
78678;PMS5003;67994;59.334;13.528;2023-05-10T05:08:00;10.1;9.1;
78678;PMS5003;67994;59.334;13.528;2023-05-10T05:09:00;13.8;11.7;
78678;PMS5003;67994;59.334;13.528;2023-05-10T05:10:00;13.8;11.7;
78678;PMS5003;67994;59.334;13.528;2023-05-10T05:11:00;13.8;11.7;
78678;PMS5003;67994;59.334;13.528;2023-05-10T05:12:00;13.8;11.7;
78678;PMS5003;67994;59.334;13.528;2023-05-10T05:13:00;13.8;11.7;
78678;PMS5003;67994;59.334;13.528;2023-05-10T05:14:00;11.7;8.3;
78678;PMS5003;67994;59.334;13.528;2023-05-10T05:15:00;11.7;8.3;
78678;PMS5003;67994;59.334;13.528;2023-05-10T05:16:00;11.7;8.3;
78678;PMS5003;67994;59.334;13.528;2023-05-10T05:17:00;11.7;8.3;
78678;PMS5003;67994;59.334;13.528;2023-05-10T05:18:00;11.7;8.3;
78678;PMS5003;67994;59.334;13.528;2023-05-10T05:19:00;11.0;11.0;
78678;PMS5003;67994;59.334;13.528;2023-05-10T05:20:00;11.0;11.0;
78678;PMS5003;67994;59.334;13.528;2023-05-10T05:21:00;11.0;11.0;
78678;PMS5003;67994;59.334;13.528;2023-05-10T05:22:00;11.0;11.0;
78678;PMS5003;67994;59.334;13.528;2023-05-10T05:23:00;11.0;11.0;
78678;PMS5003;67994;59.334;13.528;2023-05-10T05:24:00;12.0;11.3;
78678;PMS5003;67994;59.334;13.528;2023-05-10T05:25:00;12.0;11.3;
78678;PMS5003;67994;59.334;13.528;2023-05-10T05:26:00;12.0;11.3;
78678;PMS5003;67994;59.334;13.528;2023-05-10T05:27:00;12.0;11.3;
78678;PMS5003;67994;59.334;13.528;2023-05-10T05:28:00;12.0;11.3;
78678;PMS5003;67994;59.334;13.528;2023-05-10T05:29:00;12.6;11.3;
78678;PMS5003;67994;59.334;13.528;2023-05-10T05:30:00;12.6;11.3;
78678;PMS5003;67994;59.334;13.528;2023-05-10T05:31:00;12.6;11.3;
78678;PMS5003;67994;59.334;13.528;2023-05-10T05:32:00;12.6;11.3;
78678;PMS5003;67994;59.334;13.528;2023-05-10T05:33:00;12.6;11.3;
78678;PMS5003;67994;59.334;13.528;2023-05-10T05:34:00;10.5;9.7;
78678;PMS5003;67994;59.334;13.528;2023-05-10T05:35:00;10.5;9.7;
78678;PMS5003;67994;59.334;13.528;2023-05-10T05:36:00;10.5;9.7;
78678;PMS5003;67994;59.334;13.528;2023-05-10T05:37:00;10.5;9.7;
78678;PMS5003;67994;59.334;13.528;2023-05-10T05:38:00;10.5;9.7;
78678;PMS5003;67994;59.334;13.528;2023-05-10T05:39:00;8.4;8.4;
78678;PMS5003;67994;59.334;13.528;2023-05-10T05:40:00;8.4;8.4;
78678;PMS5003;67994;59.334;13.528;2023-05-10T05:41:00;8.4;8.4;
78678;PMS5003;67994;59.334;13.528;2023-05-10T05:42:00;8.4;8.4;
78678;PMS5003;67994;59.334;13.528;2023-05-10T05:43:00;8.4;8.4;
78678;PMS5003;67994;59.334;13.528;2023-05-10T05:44:00;11.9;11.3;
78678;PMS5003;67994;59.334;13.528;2023-05-10T05:45:00;11.9;11.3;
78678;PMS5003;67994;59.334;13.528;2023-05-10T05:46:00;11.9;11.3;
78678;PMS5003;67994;59.334;13.528;2023-05-10T05:47:00;11.9;11.3;
78678;PMS5003;67994;59.334;13.528;2023-05-10T05:48:00;11.9;11.3;
78678;PMS5003;67994;59.334;13.528;2023-05-10T05:49:00;12.2;12.0;
78678;PMS5003;67994;59.334;13.528;2023-05-10T05:50:00;12.2;12.0;
78678;PMS5003;67994;59.334;13.528;2023-05-10T05:51:00;12.2;12.0;
78678;PMS5003;67994;59.334;13.528;2023-05-10T05:52:00;12.2;12.0;
78678;PMS5003;67994;59.334;13.528;2023-05-10T05:53:00;12.2;12.0;
78678;PMS5003;67994;59.334;13.528;2023-05-10T05:54:00;12.0;12.0;
78678;PMS5003;67994;59.334;13.528;2023-05-10T05:55:00;12.0;12.0;
78678;PMS5003;67994;59.334;13.528;2023-05-10T05:56:00;12.0;12.0;
78678;PMS5003;67994;59.334;13.528;2023-05-10T05:57:00;12.0;12.0;
78678;PMS5003;67994;59.334;13.528;2023-05-10T05:58:00;12.0;12.0;
78678;PMS5003;67994;59.334;13.528;2023-05-10T05:59:00;13.4;13.0;
78678;PMS5003;67994;59.334;13.528;2023-05-10T06:00:00;13.4;13.0;
78678;PMS5003;67994;59.334;13.528;2023-05-10T06:01:00;13.4;13.0;
78678;PMS5003;67994;59.334;13.528;2023-05-10T06:02:00;13.4;13.0;
78678;PMS5003;67994;59.334;13.528;2023-05-10T06:03:00;13.4;13.0;
78678;PMS5003;67994;59.334;13.528;2023-05-10T06:04:00;9.0;9.0;
78678;PMS5003;67994;59.334;13.528;2023-05-10T06:05:00;9.0;9.0;
78678;PMS5003;67994;59.334;13.528;2023-05-10T06:06:00;9.0;9.0;
78678;PMS5003;67994;59.334;13.528;2023-05-10T06:07:00;9.0;9.0;
78678;PMS5003;67994;59.334;13.528;2023-05-10T06:08:00;9.0;9.0;
78678;PMS5003;67994;59.334;13.528;2023-05-10T06:09:00;14.3;10.1;
78678;PMS5003;67994;59.334;13.528;2023-05-10T06:10:00;14.3;10.1;
78678;PMS5003;67994;59.334;13.528;2023-05-10T06:11:00;14.3;10.1;
78678;PMS5003;67994;59.334;13.528;2023-05-10T06:12:00;14.3;10.1;
78678;PMS5003;67994;59.334;13.528;2023-05-10T06:13:00;14.3;10.1;
78678;PMS5003;67994;59.334;13.528;2023-05-10T06:14:00;10.0;8.7;